メインページ
METAR-TAF:

METAR-TAF

空港 :

フェリックス・ウフェ=ボワニ国際空港

アビジャン, コートジボワール

緯度: 05-15N, 経度: 003-56W, 海抜: 7m

現時点の気象観測

当レポートは32分前の01:00(UTC)に作成
西/南西の風 5kt
気温 27°C
湿度 89%
気圧 1012 hPa
視程: 8000m
高度1200ftの雲は散在している
高度3000ftの千切れ雲あり
小雨

METAR: DIAP 160100Z 25005KT 8000 -RA SCT012 BKN030 27/25 Q1012 NOSIG

時間: 01:32 (01:32 UTC)

予報

当レポートは2時間32分前の23:00(UTC)に作成
予報は16日の 00時(UTC)から 17日の 06時(UTC)まで有効
南西の風 6kt
視程10km以上
高度1200ftの雲は散在している
16日の 04時(UTC)から 16日の 09時(UTC)まで一時的に
視程: 4000m
高度1200ftの千切れ雲あり
16日の 16時(UTC)から 16日の 20時(UTC)まで一時的に
高度1200ftの千切れ雲あり
16日の 20時(UTC)から 17日の 02時(UTC)まで一時的に
視程: 4000m
高度1200ftの千切れ雲あり

TAF: DIAP 152300Z 1600/1706 22006KT 9999 SCT012 TEMPO 1604/1609 4000 RA BKN012 TEMPO 1616/1620 BKN012 TEMPO 1620/1702 4000 RA BKN012

4,000以上の空港の気象観測と天気予報(METAR報とTAF報)

利用可能な観測所は地図上に黄色い丸と赤い丸で示す。

丸の上にカーソルを重ねると観測所名を参照できる。

次にクリックすると気象観測と天気予報を参照できる。

マップの切り替え:黒色「×」印の緑ボタンをクリックして拡大、「-」印の緑ボタンをクリックして縮小、緑色の三角印をクリックして隣りの地図に切り替え


METAR-TAF: